createdAt,value
2023-01-22T00:00:57.998Z,26.30
2023-01-22T00:03:24.563Z,24.63
2023-01-22T00:05:52.380Z,26.45
2023-01-22T00:08:19.633Z,26.48
2023-01-22T00:10:53.370Z,22.30
2023-01-22T00:13:21.594Z,28.60
2023-01-22T00:15:48.491Z,26.73
2023-01-22T00:18:15.115Z,27.75
2023-01-22T00:20:41.830Z,26.83
2023-01-22T00:23:08.273Z,24.80
2023-01-22T00:25:34.702Z,26.95
2023-01-22T00:28:01.153Z,27.77
2023-01-22T00:30:27.620Z,29.33
2023-01-22T00:32:54.029Z,30.00
2023-01-22T00:35:20.452Z,28.27
2023-01-22T00:37:48.201Z,33.20
2023-01-22T00:40:15.745Z,31.77
2023-01-22T00:42:42.600Z,27.23
2023-01-22T00:45:09.569Z,30.30
2023-01-22T00:47:36.072Z,29.88
2023-01-22T00:50:02.771Z,30.85
2023-01-22T00:52:29.153Z,29.70
2023-01-22T00:54:55.635Z,28.17
2023-01-22T00:57:22.662Z,28.77
2023-01-22T00:59:49.516Z,30.65
2023-01-22T01:02:16.452Z,30.48
2023-01-22T01:04:42.904Z,26.70
2023-01-22T01:07:09.617Z,30.15
2023-01-22T01:09:36.061Z,29.33
2023-01-22T01:12:02.554Z,28.75
2023-01-22T01:14:28.993Z,26.20
2023-01-22T01:16:58.290Z,30.42
2023-01-22T01:19:24.846Z,26.83
2023-01-22T01:21:51.270Z,26.90
2023-01-22T01:24:17.674Z,23.65
2023-01-22T01:26:44.102Z,28.80
2023-01-22T01:29:12.726Z,27.08
2023-01-22T01:31:39.271Z,31.75
2023-01-22T01:34:05.804Z,28.35
2023-01-22T01:36:47.585Z,26.50
2023-01-22T01:39:15.074Z,26.30
2023-01-22T01:41:41.497Z,24.50
2023-01-22T01:44:08.811Z,23.70
2023-01-22T01:46:37.001Z,21.58
2023-01-22T01:49:03.586Z,31.42
2023-01-22T01:51:33.150Z,27.30
2023-01-22T01:54:00.945Z,27.58
2023-01-22T01:56:29.680Z,27.00
2023-01-22T01:59:00.893Z,25.38
2023-01-22T02:01:27.699Z,27.83
2023-01-22T02:03:54.831Z,28.25
2023-01-22T02:06:21.474Z,26.63
2023-01-22T02:08:49.097Z,27.35
2023-01-22T02:11:17.327Z,25.13
2023-01-22T02:13:51.552Z,26.42
2023-01-22T02:16:18.797Z,24.05
2023-01-22T02:18:45.386Z,23.67
2023-01-22T02:21:31.446Z,27.60
2023-01-22T02:23:58.145Z,29.10
2023-01-22T02:26:24.635Z,23.88
2023-01-22T02:28:51.086Z,27.60
2023-01-22T02:31:17.604Z,27.05
2023-01-22T02:33:44.140Z,22.08
2023-01-22T02:36:10.618Z,23.45
2023-01-22T02:38:37.084Z,22.73
2023-01-22T02:41:03.571Z,23.95
2023-01-22T02:43:29.995Z,24.10
2023-01-22T02:45:56.579Z,22.58
2023-01-22T02:48:23.004Z,23.02
2023-01-22T02:50:49.468Z,20.80
2023-01-22T02:53:15.940Z,22.65
2023-01-22T02:55:44.951Z,21.83
2023-01-22T02:58:11.564Z,19.42
2023-01-22T03:00:38.197Z,22.58
2023-01-22T03:03:07.719Z,21.63
2023-01-22T03:05:34.825Z,22.42
2023-01-22T03:08:01.728Z,21.35
2023-01-22T03:10:28.264Z,22.75
2023-01-22T03:13:13.472Z,23.20
2023-01-22T03:15:58.832Z,23.30
2023-01-22T03:18:43.872Z,19.38
2023-01-22T03:21:15.674Z,23.23
2023-01-22T03:23:46.735Z,19.83
2023-01-22T03:26:13.745Z,22.10
2023-01-22T03:28:40.565Z,21.00
2023-01-22T03:31:07.678Z,20.27
2023-01-22T03:33:34.631Z,22.70
2023-01-22T03:36:02.628Z,21.35
2023-01-22T03:38:29.549Z,22.08
2023-01-22T03:41:04.054Z,22.48
2023-01-22T03:43:31.082Z,24.23
2023-01-22T03:46:27.283Z,24.70
2023-01-22T03:48:54.042Z,20.30
2023-01-22T03:51:21.036Z,25.38
2023-01-22T03:53:48.327Z,22.88
2023-01-22T03:56:18.662Z,23.25
2023-01-22T03:58:45.547Z,24.80
2023-01-22T04:01:14.626Z,22.65
2023-01-22T04:03:41.368Z,23.90
2023-01-22T04:06:09.322Z,23.20
2023-01-22T04:08:36.739Z,25.02
2023-01-22T04:11:03.564Z,25.80
2023-01-22T04:13:32.915Z,21.95
2023-01-22T04:15:59.369Z,29.25
2023-01-22T04:18:25.875Z,22.63
2023-01-22T04:20:53.468Z,23.23
2023-01-22T04:23:21.199Z,23.73
2023-01-22T04:25:48.242Z,26.92
2023-01-22T04:28:15.681Z,27.80
2023-01-22T04:30:43.592Z,28.80
2023-01-22T04:33:10.284Z,25.50
2023-01-22T04:35:37.335Z,24.95
2023-01-22T04:38:05.221Z,25.58
2023-01-22T04:40:33.532Z,26.08
2023-01-22T04:43:30.369Z,27.88
2023-01-22T04:45:56.939Z,27.30
2023-01-22T04:48:23.452Z,24.00
2023-01-22T04:50:49.928Z,24.88
2023-01-22T04:53:16.396Z,26.13
2023-01-22T04:55:43.505Z,27.02
2023-01-22T04:58:10.067Z,27.95
2023-01-22T05:00:36.907Z,25.35
2023-01-22T05:03:04.473Z,25.98
2023-01-22T05:05:32.040Z,22.48
2023-01-22T05:07:59.517Z,25.25
2023-01-22T05:10:26.357Z,25.42
2023-01-22T05:12:54.028Z,27.35
2023-01-22T05:15:25.002Z,24.58
2023-01-22T05:17:52.629Z,25.60
2023-01-22T05:20:19.562Z,25.27
2023-01-22T05:22:46.131Z,25.60
2023-01-22T05:25:12.939Z,23.55
2023-01-22T05:27:39.394Z,24.05
2023-01-22T05:30:08.577Z,26.42
2023-01-22T05:32:35.155Z,23.05
2023-01-22T05:35:02.377Z,25.00
2023-01-22T05:37:28.876Z,26.63
2023-01-22T05:39:55.326Z,26.10
2023-01-22T05:42:21.773Z,23.70
2023-01-22T05:44:48.270Z,26.92
2023-01-22T05:47:15.417Z,24.45
2023-01-22T05:49:42.229Z,27.92
2023-01-22T05:52:10.823Z,25.08
2023-01-22T05:54:38.903Z,27.00
2023-01-22T05:57:05.708Z,22.17
2023-01-22T05:59:32.162Z,24.60
2023-01-22T06:01:58.618Z,24.35
2023-01-22T06:04:25.192Z,22.45
2023-01-22T06:06:51.657Z,23.30
2023-01-22T06:09:18.088Z,21.85
2023-01-22T06:11:44.495Z,21.48
2023-01-22T06:14:10.924Z,21.67
2023-01-22T06:16:37.368Z,21.40
2023-01-22T06:19:04.176Z,21.77
2023-01-22T06:21:30.749Z,21.38
2023-01-22T06:23:57.164Z,23.80
2023-01-22T06:26:23.668Z,21.80
2023-01-22T06:28:50.065Z,21.67
2023-01-22T06:31:16.694Z,23.05
2023-01-22T06:33:43.202Z,21.75
2023-01-22T06:36:09.871Z,22.85
2023-01-22T06:38:36.546Z,22.58
2023-01-22T06:41:03.063Z,23.02
2023-01-22T06:43:29.497Z,22.13
2023-01-22T06:45:56.189Z,22.40
2023-01-22T06:48:22.730Z,25.05
2023-01-22T06:50:49.440Z,21.67
2023-01-22T06:53:15.917Z,20.85
2023-01-22T06:55:42.448Z,19.85
2023-01-22T06:58:08.905Z,21.70
2023-01-22T07:00:35.333Z,22.25
2023-01-22T07:03:06.670Z,21.23
2023-01-22T07:05:33.464Z,21.13
2023-01-22T07:07:59.903Z,20.33
2023-01-22T07:10:26.454Z,23.60
2023-01-22T07:12:58.841Z,22.67
2023-01-22T07:15:26.104Z,23.40
2023-01-22T07:17:54.038Z,24.35
2023-01-22T07:20:22.073Z,21.38
2023-01-22T07:22:48.804Z,22.92
2023-01-22T07:25:15.294Z,22.48
2023-01-22T07:27:41.769Z,21.88
2023-01-22T07:30:08.950Z,22.75
2023-01-22T07:32:35.812Z,22.23
2023-01-22T07:35:02.229Z,30.38
2023-01-22T07:37:28.637Z,22.92
2023-01-22T07:39:55.096Z,26.10
2023-01-22T07:42:21.529Z,25.23
2023-01-22T07:44:48.036Z,22.98
2023-01-22T07:47:14.527Z,24.17
2023-01-22T07:49:40.966Z,30.65
2023-01-22T07:52:07.397Z,21.40
2023-01-22T07:54:36.275Z,23.33
2023-01-22T07:57:03.714Z,24.88
2023-01-22T07:59:30.193Z,25.95
2023-01-22T08:01:57.087Z,31.27
2023-01-22T08:04:24.223Z,23.33
2023-01-22T08:06:50.700Z,22.35
2023-01-22T08:09:24.519Z,22.52
2023-01-22T08:11:52.371Z,21.38
2023-01-22T08:14:19.215Z,22.25
2023-01-22T08:16:45.736Z,23.50
2023-01-22T08:19:12.428Z,21.02
2023-01-22T08:21:38.897Z,22.05
2023-01-22T08:24:05.873Z,23.33
2023-01-22T08:26:32.394Z,23.40
2023-01-22T08:28:58.840Z,22.85
2023-01-22T08:31:28.241Z,23.67
2023-01-22T08:33:55.091Z,25.08
2023-01-22T08:36:21.525Z,21.50
2023-01-22T08:38:48.023Z,23.70
2023-01-22T08:41:15.637Z,21.77
2023-01-22T08:43:42.168Z,22.13
2023-01-22T08:46:08.665Z,24.30
2023-01-22T08:48:35.240Z,21.65
2023-01-22T08:51:02.191Z,21.52
2023-01-22T08:53:28.665Z,25.65
2023-01-22T08:55:56.046Z,25.00
2023-01-22T08:58:25.249Z,23.73
2023-01-22T09:00:51.712Z,23.27
2023-01-22T09:03:18.197Z,16.67
2023-01-22T09:05:44.656Z,26.20
2023-01-22T09:08:11.180Z,25.75
2023-01-22T09:10:37.633Z,21.85
2023-01-22T09:13:04.397Z,24.75
2023-01-22T09:15:31.032Z,23.77
2023-01-22T09:17:57.551Z,19.17
2023-01-22T09:20:24.152Z,21.45
2023-01-22T09:22:50.654Z,24.48
2023-01-22T09:25:17.310Z,21.63
2023-01-22T09:27:43.983Z,22.35
2023-01-22T09:30:16.759Z,19.63
2023-01-22T09:32:46.276Z,20.52
2023-01-22T09:35:16.631Z,20.27
2023-01-22T09:37:43.264Z,20.50
2023-01-22T09:40:24.299Z,21.05
2023-01-22T09:45:19.782Z,22.67
2023-01-22T09:47:49.671Z,20.25
2023-01-22T09:50:40.202Z,20.33
2023-01-22T09:53:12.128Z,19.88
2023-01-22T09:55:47.854Z,20.15
2023-01-22T09:58:16.967Z,21.30
2023-01-22T10:00:47.780Z,21.52
2023-01-22T10:03:28.859Z,22.38
2023-01-22T10:08:53.232Z,22.10
2023-01-22T10:11:19.982Z,20.40
2023-01-22T10:13:50.024Z,21.17
2023-01-22T10:16:16.502Z,20.60
2023-01-22T10:18:59.192Z,24.05
2023-01-22T10:21:28.779Z,22.00
2023-01-22T10:23:56.801Z,21.40
2023-01-22T10:26:36.200Z,21.00
2023-01-22T10:29:08.579Z,21.45
2023-01-22T10:31:38.424Z,19.25
2023-01-22T10:34:15.893Z,20.00
2023-01-22T10:36:49.188Z,21.25
2023-01-22T10:39:16.805Z,22.30
2023-01-22T10:41:44.791Z,23.60
2023-01-22T10:44:17.264Z,21.02
2023-01-22T10:46:46.332Z,19.20
2023-01-22T10:49:16.168Z,29.27
2023-01-22T10:51:45.727Z,22.15
2023-01-22T10:54:39.780Z,16.40
2023-01-22T10:57:15.239Z,20.25
2023-01-22T10:59:49.315Z,19.70
2023-01-22T11:02:21.010Z,14.95
2023-01-22T11:04:47.757Z,20.15
2023-01-22T11:07:31.662Z,23.58
2023-01-22T11:09:59.043Z,19.80
2023-01-22T11:12:31.515Z,15.40
2023-01-22T11:15:31.063Z,21.40
2023-01-22T11:18:00.629Z,20.35
2023-01-22T11:20:48.064Z,20.27
2023-01-22T11:23:42.067Z,20.70
2023-01-22T11:26:33.284Z,20.67
2023-01-22T11:31:52.020Z,21.38
2023-01-22T11:34:37.336Z,21.27
2023-01-22T11:37:15.376Z,19.15
2023-01-22T11:40:01.257Z,20.30
2023-01-22T11:42:49.707Z,18.27
2023-01-22T11:45:19.279Z,19.20
2023-01-22T11:47:52.023Z,26.13
2023-01-22T11:50:22.390Z,28.00
2023-01-22T11:53:01.378Z,17.60
2023-01-22T11:55:57.138Z,19.40
2023-01-22T11:59:08.797Z,19.27
2023-01-22T12:01:56.467Z,21.42
2023-01-22T12:04:33.452Z,23.10
2023-01-22T12:07:37.662Z,21.83
2023-01-22T12:10:13.137Z,26.83
2023-01-22T12:12:48.576Z,23.75
2023-01-22T12:15:39.369Z,20.80
2023-01-22T12:18:24.683Z,20.27
2023-01-22T12:21:15.994Z,20.90
2023-01-22T12:23:48.980Z,27.42
2023-01-22T12:26:24.110Z,22.60
2023-01-22T12:29:10.113Z,25.20
2023-01-22T12:31:46.062Z,20.35
2023-01-22T12:34:23.555Z,19.70
2023-01-22T12:36:51.027Z,19.10
2023-01-22T12:39:27.186Z,22.70
2023-01-22T12:42:09.213Z,24.27
2023-01-22T12:44:49.507Z,22.75
2023-01-22T12:47:42.206Z,16.58
2023-01-22T12:50:21.304Z,23.30
2023-01-22T12:53:17.860Z,18.00
2023-01-22T12:55:45.081Z,25.55
2023-01-22T12:58:22.351Z,21.27
2023-01-22T13:01:00.763Z,22.90
2023-01-22T13:03:32.895Z,22.23
2023-01-22T13:06:01.269Z,23.92
2023-01-22T13:08:42.379Z,24.95
2023-01-22T13:11:11.382Z,24.80
2023-01-22T13:13:48.898Z,24.38
2023-01-22T13:16:15.336Z,25.88
2023-01-22T13:18:44.998Z,16.90
2023-01-22T13:21:14.416Z,23.25
2023-01-22T13:23:45.732Z,24.27
2023-01-22T13:26:23.898Z,20.80
2023-01-22T13:28:53.917Z,25.98
2023-01-22T13:31:20.919Z,25.57
2023-01-22T13:34:08.609Z,29.88
2023-01-22T13:36:39.733Z,22.63
2023-01-22T13:39:06.205Z,21.05
2023-01-22T13:41:37.454Z,23.25
2023-01-22T13:44:07.675Z,17.50
2023-01-22T13:46:37.526Z,22.10
2023-01-22T13:49:07.813Z,28.08
2023-01-22T13:51:35.460Z,23.20
2023-01-22T13:54:03.377Z,26.02
2023-01-22T13:56:30.154Z,21.52
2023-01-22T13:59:14.866Z,25.35
2023-01-22T14:01:44.242Z,26.50
2023-01-22T14:04:34.397Z,31.20
2023-01-22T14:07:01.334Z,29.47
2023-01-22T14:09:32.255Z,26.80
2023-01-22T14:14:26.191Z,26.30
2023-01-22T14:16:52.843Z,22.00
2023-01-22T14:19:19.387Z,29.70
2023-01-22T14:21:45.844Z,21.23
2023-01-22T14:24:12.345Z,29.75
2023-01-22T14:26:38.982Z,24.25
2023-01-22T14:29:05.609Z,23.52
2023-01-22T14:31:32.219Z,31.92
2023-01-22T14:33:58.805Z,29.30
2023-01-22T14:36:25.509Z,28.35
2023-01-22T14:38:53.548Z,20.98
2023-01-22T14:41:20.569Z,21.60
2023-01-22T14:43:46.983Z,28.15
2023-01-22T14:46:13.560Z,36.80
2023-01-22T14:48:42.224Z,31.10
2023-01-22T14:51:12.803Z,23.98
2023-01-22T14:53:40.134Z,24.33
2023-01-22T14:56:07.147Z,29.75
2023-01-22T14:58:33.595Z,26.02
2023-01-22T15:01:00.286Z,24.65
2023-01-22T15:03:29.760Z,27.80
2023-01-22T15:05:56.521Z,22.70
2023-01-22T15:08:23.198Z,27.02
2023-01-22T15:10:49.732Z,27.60
2023-01-22T15:13:16.183Z,24.77
2023-01-22T15:15:42.646Z,24.05
2023-01-22T15:18:09.108Z,26.40
2023-01-22T15:20:35.609Z,26.55
2023-01-22T15:23:02.295Z,30.30
2023-01-22T15:25:28.760Z,35.50
2023-01-22T15:27:57.844Z,32.75
2023-01-22T15:30:24.744Z,34.03
2023-01-22T15:32:51.541Z,26.95
2023-01-22T15:35:18.003Z,33.45
2023-01-22T15:37:44.521Z,32.38
2023-01-22T15:40:11.892Z,32.10
2023-01-22T15:42:43.883Z,33.13
2023-01-22T15:45:11.278Z,30.73
2023-01-22T15:47:37.762Z,28.95
2023-01-22T15:50:04.787Z,28.75
2023-01-22T15:52:31.569Z,29.80
2023-01-22T15:54:58.109Z,32.60
2023-01-22T15:57:24.551Z,34.05
2023-01-22T15:59:53.849Z,37.65
2023-01-22T16:02:22.129Z,32.88
2023-01-22T16:04:48.649Z,30.10
2023-01-22T16:07:15.230Z,27.45
2023-01-22T16:09:41.705Z,33.20
2023-01-22T16:12:09.094Z,27.08
2023-01-22T16:14:35.792Z,27.95
2023-01-22T16:17:02.503Z,27.98
2023-01-22T16:19:29.052Z,37.85
2023-01-22T16:21:55.672Z,31.15
2023-01-22T16:24:22.271Z,30.85
2023-01-22T16:26:49.141Z,29.40
2023-01-22T16:29:15.633Z,37.63
2023-01-22T16:31:42.258Z,36.75
2023-01-22T16:34:11.395Z,37.55
2023-01-22T16:36:38.378Z,33.95
2023-01-22T16:39:05.489Z,37.00
2023-01-22T16:41:34.100Z,26.52
2023-01-22T16:44:12.311Z,37.40
2023-01-22T16:46:41.732Z,32.63
2023-01-22T16:49:14.698Z,32.28
2023-01-22T16:51:46.889Z,31.90
2023-01-22T16:54:31.910Z,23.75
2023-01-22T16:57:01.156Z,35.42
2023-01-22T16:59:27.722Z,41.88
2023-01-22T17:01:55.081Z,30.30
2023-01-22T17:04:21.550Z,35.70
2023-01-22T17:06:50.457Z,37.20
2023-01-22T17:09:19.544Z,34.80
2023-01-22T17:11:49.523Z,38.25
2023-01-22T17:14:18.908Z,30.37
2023-01-22T17:16:45.472Z,39.95
2023-01-22T17:19:13.399Z,37.30
2023-01-22T17:21:39.990Z,39.70
2023-01-22T17:24:11.426Z,28.45
2023-01-22T17:26:38.227Z,39.42
2023-01-22T17:29:06.866Z,52.88
2023-01-22T17:31:33.767Z,38.53
2023-01-22T17:34:00.393Z,37.42
2023-01-22T17:36:28.321Z,27.75
2023-01-22T17:38:56.551Z,35.65
2023-01-22T17:41:24.660Z,35.05
2023-01-22T17:43:52.408Z,31.20
2023-01-22T17:46:21.780Z,40.42
2023-01-22T17:48:49.822Z,54.88
2023-01-22T17:51:25.250Z,51.83
2023-01-22T17:53:51.995Z,29.48
2023-01-22T17:56:26.905Z,44.67
2023-01-22T17:58:55.740Z,27.60
2023-01-22T18:01:28.593Z,47.58
2023-01-22T18:04:00.349Z,32.92
2023-01-22T18:06:26.950Z,39.80
2023-01-22T18:08:53.913Z,35.53
2023-01-22T18:11:24.053Z,33.20
2023-01-22T18:13:50.640Z,31.38
2023-01-22T18:16:18.406Z,33.53
2023-01-22T18:18:45.216Z,36.00
2023-01-22T18:21:15.124Z,28.98
2023-01-22T18:23:42.225Z,46.10
2023-01-22T18:26:08.977Z,34.55
2023-01-22T18:28:35.980Z,58.80
2023-01-22T18:31:13.005Z,40.95
2023-01-22T18:33:40.586Z,38.65
2023-01-22T18:36:12.247Z,28.33
2023-01-22T18:38:41.955Z,37.22
2023-01-22T18:41:23.638Z,25.63
2023-01-22T18:43:56.168Z,38.55
2023-01-22T18:46:24.605Z,29.17
2023-01-22T18:49:00.008Z,35.70
2023-01-22T18:51:28.386Z,36.60
2023-01-22T18:53:56.702Z,28.33
2023-01-22T18:56:25.480Z,30.25
2023-01-22T18:58:56.171Z,33.58
2023-01-22T19:01:25.394Z,28.08
2023-01-22T19:03:54.299Z,45.55
2023-01-22T19:06:23.407Z,46.75
2023-01-22T19:09:06.284Z,36.70
2023-01-22T19:11:35.634Z,41.05
2023-01-22T19:14:03.397Z,30.92
2023-01-22T19:16:30.476Z,36.10
2023-01-22T19:19:03.839Z,38.17
2023-01-22T19:21:30.890Z,37.25
2023-01-22T19:23:59.418Z,31.10
2023-01-22T19:26:34.152Z,40.78
2023-01-22T19:29:05.849Z,30.05
2023-01-22T19:31:33.675Z,41.08
2023-01-22T19:34:01.322Z,45.55
2023-01-22T19:36:29.964Z,34.40
2023-01-22T19:38:57.807Z,58.65
2023-01-22T19:41:25.015Z,44.85
2023-01-22T19:43:55.748Z,32.10
2023-01-22T19:46:22.390Z,39.95
2023-01-22T19:48:49.084Z,37.22
2023-01-22T19:51:17.115Z,42.45
2023-01-22T19:53:43.759Z,35.35
2023-01-22T19:56:20.927Z,36.20
2023-01-22T19:58:48.740Z,40.35
2023-01-22T20:01:16.399Z,45.22
2023-01-22T20:03:43.241Z,47.63
2023-01-22T20:06:11.369Z,52.28
2023-01-22T20:08:38.948Z,45.42
2023-01-22T20:11:07.828Z,48.03
2023-01-22T20:13:36.574Z,45.80
2023-01-22T20:16:03.952Z,48.47
2023-01-22T20:18:30.847Z,44.08
2023-01-22T20:20:59.765Z,43.53
2023-01-22T20:23:27.877Z,56.33
2023-01-22T20:25:54.998Z,50.70
2023-01-22T20:28:21.836Z,55.60
2023-01-22T20:30:59.710Z,50.70
2023-01-22T20:33:27.099Z,48.92
2023-01-22T20:35:58.303Z,54.65
2023-01-22T20:38:25.244Z,57.50
2023-01-22T20:40:52.124Z,43.30
2023-01-22T20:43:19.833Z,52.60
2023-01-22T20:45:57.673Z,49.30
2023-01-22T20:48:24.183Z,50.55
2023-01-22T20:50:50.695Z,47.40
2023-01-22T20:53:19.212Z,54.90
2023-01-22T20:55:46.060Z,54.53
2023-01-22T20:58:12.543Z,55.38
2023-01-22T21:00:39.917Z,45.33
2023-01-22T21:03:06.431Z,35.08
2023-01-22T21:05:32.972Z,49.10
2023-01-22T21:08:01.711Z,53.83
2023-01-22T21:10:28.158Z,53.28
2023-01-22T21:12:54.610Z,51.20
2023-01-22T21:15:21.061Z,60.03
2023-01-22T21:17:47.530Z,43.53
2023-01-22T21:20:14.022Z,60.08
2023-01-22T21:22:42.361Z,48.92
2023-01-22T21:25:09.122Z,43.50
2023-01-22T21:27:37.817Z,57.13
2023-01-22T21:30:07.576Z,62.45
2023-01-22T21:32:34.067Z,61.85
2023-01-22T21:35:01.710Z,46.92
2023-01-22T21:37:28.223Z,56.90
2023-01-22T21:39:54.631Z,56.30
2023-01-22T21:42:39.603Z,51.00
2023-01-22T21:45:25.311Z,49.58
2023-01-22T21:47:51.795Z,39.85
2023-01-22T21:50:18.382Z,51.63
2023-01-22T21:52:46.394Z,52.78
2023-01-22T21:55:14.899Z,54.30
2023-01-22T21:57:41.705Z,46.55
2023-01-22T22:00:08.997Z,49.45
2023-01-22T22:02:35.572Z,44.67
2023-01-22T22:05:02.124Z,47.80
2023-01-22T22:07:28.572Z,47.65
2023-01-22T22:09:54.987Z,44.05
2023-01-22T22:12:21.522Z,46.08
2023-01-22T22:14:48.016Z,44.05
2023-01-22T22:17:14.421Z,44.00
2023-01-22T22:19:40.982Z,44.83
2023-01-22T22:22:07.543Z,44.78
2023-01-22T22:24:36.283Z,45.35
2023-01-22T22:27:02.737Z,44.00
2023-01-22T22:29:29.177Z,44.00
2023-01-22T22:31:55.779Z,43.40
2023-01-22T22:34:22.217Z,46.67
2023-01-22T22:36:48.662Z,43.75
2023-01-22T22:39:15.142Z,40.05
2023-01-22T22:41:41.656Z,36.38
2023-01-22T22:44:08.678Z,40.53
2023-01-22T22:46:36.997Z,44.55
2023-01-22T22:49:04.522Z,41.25
2023-01-22T22:51:36.611Z,37.35
2023-01-22T22:54:06.124Z,42.78
2023-01-22T22:56:32.649Z,37.92
2023-01-22T22:59:00.799Z,38.75
2023-01-22T23:01:28.233Z,40.17
2023-01-22T23:03:55.017Z,39.72
2023-01-22T23:06:32.499Z,37.42
2023-01-22T23:08:59.869Z,41.38
2023-01-22T23:11:32.166Z,37.90
2023-01-22T23:14:01.382Z,38.72
2023-01-22T23:16:33.278Z,36.78
2023-01-22T23:19:01.726Z,35.45
2023-01-22T23:21:28.801Z,34.20
2023-01-22T23:23:56.064Z,34.88
2023-01-22T23:26:28.132Z,35.20
2023-01-22T23:28:57.818Z,32.10
2023-01-22T23:31:25.173Z,33.35
2023-01-22T23:33:51.918Z,31.45
2023-01-22T23:36:18.354Z,30.15
2023-01-22T23:38:45.271Z,27.02
2023-01-22T23:41:14.471Z,31.42
2023-01-22T23:43:42.048Z,28.42
2023-01-22T23:46:11.234Z,27.50
2023-01-22T23:48:37.933Z,26.63
2023-01-22T23:51:04.602Z,31.30
2023-01-22T23:53:31.020Z,31.52
2023-01-22T23:56:01.302Z,31.75
2023-01-22T23:58:28.606Z,28.05
